createdAt,value
2023-01-13T00:00:29.774Z,100386.13
2023-01-13T00:02:56.243Z,100392.50
2023-01-13T00:05:22.655Z,100385.75
2023-01-13T00:07:49.086Z,100383.97
2023-01-13T00:10:15.497Z,100385.16
2023-01-13T00:12:41.930Z,100372.97
2023-01-13T00:15:08.360Z,100368.03
2023-01-13T00:17:34.778Z,100361.00
2023-01-13T00:20:01.196Z,100359.19
2023-01-13T00:22:27.677Z,100351.97
2023-01-13T00:24:54.102Z,100358.28
2023-01-13T00:27:20.524Z,100354.59
2023-01-13T00:29:46.965Z,100353.75
2023-01-13T00:32:13.399Z,100358.78
2023-01-13T00:34:39.809Z,100352.91
2023-01-13T00:37:06.228Z,100349.38
2023-01-13T00:39:32.652Z,100360.50
2023-01-13T00:41:59.068Z,100353.75
2023-01-13T00:44:25.487Z,100362.16
2023-01-13T00:46:52.057Z,100346.66
2023-01-13T00:49:18.490Z,100333.97
2023-01-13T00:51:44.910Z,100342.22
2023-01-13T00:54:11.341Z,100346.78
2023-01-13T00:56:40.786Z,100336.06
2023-01-13T00:59:07.770Z,100340.56
2023-01-13T01:01:34.292Z,100343.16
2023-01-13T01:04:00.782Z,100349.28
2023-01-13T01:06:27.200Z,100353.88
2023-01-13T01:08:53.630Z,100346.00
2023-01-13T01:11:20.048Z,100353.59
2023-01-13T01:13:46.466Z,100348.91
2023-01-13T01:16:12.932Z,100350.44
2023-01-13T01:18:39.471Z,100351.19
2023-01-13T01:21:05.880Z,100349.03
2023-01-13T01:23:32.309Z,100341.13
2023-01-13T01:25:58.730Z,100343.03
2023-01-13T01:28:25.145Z,100332.09
2023-01-13T01:30:51.558Z,100340.63
2023-01-13T01:33:17.984Z,100331.09
2023-01-13T01:35:44.428Z,100329.56
2023-01-13T01:38:10.836Z,100339.53
2023-01-13T01:40:37.246Z,100342.09
2023-01-13T01:43:03.680Z,100354.34
2023-01-13T01:45:30.093Z,100328.78
2023-01-13T01:47:56.513Z,100336.19
2023-01-13T01:50:22.934Z,100331.09
2023-01-13T01:52:49.373Z,100321.81
2023-01-13T01:55:15.803Z,100331.84
2023-01-13T01:57:42.243Z,100329.72
2023-01-13T02:00:08.717Z,100337.88
2023-01-13T02:02:35.138Z,100346.38
2023-01-13T02:05:01.587Z,100355.09
2023-01-13T02:07:28.045Z,100349.22
2023-01-13T02:09:54.469Z,100352.25
2023-01-13T02:12:20.885Z,100366.44
2023-01-13T02:14:47.341Z,100361.31
2023-01-13T02:17:13.787Z,100366.38
2023-01-13T02:19:40.202Z,100367.94
2023-01-13T02:22:06.625Z,100368.03
2023-01-13T02:24:33.069Z,100369.81
2023-01-13T02:26:59.671Z,100362.38
2023-01-13T02:29:26.152Z,100366.38
2023-01-13T02:31:52.695Z,100368.28
2023-01-13T02:34:19.149Z,100367.94
2023-01-13T02:36:45.592Z,100373.91
2023-01-13T02:39:12.035Z,100373.84
2023-01-13T02:41:38.456Z,100370.94
2023-01-13T02:44:04.878Z,100376.38
2023-01-13T02:46:31.287Z,100372.97
2023-01-13T02:48:57.727Z,100362.97
2023-01-13T02:51:24.146Z,100366.44
2023-01-13T02:53:50.540Z,100380.63
2023-01-13T02:56:16.977Z,100385.38
2023-01-13T02:58:43.387Z,100398.50
2023-01-13T03:01:09.820Z,100392.31
2023-01-13T03:03:36.246Z,100401.06
2023-01-13T03:06:02.590Z,100392.19
2023-01-13T03:08:28.966Z,100398.66
2023-01-13T03:10:55.339Z,100396.38
2023-01-13T03:13:21.695Z,100400.72
2023-01-13T03:15:48.048Z,100404.53
2023-01-13T03:18:14.401Z,100401.81
2023-01-13T03:20:40.754Z,100397.88
2023-01-13T03:23:07.141Z,100403.78
2023-01-13T03:25:33.525Z,100404.59
2023-01-13T03:27:59.899Z,100411.06
2023-01-13T03:30:26.386Z,100403.25
2023-01-13T03:32:52.736Z,100404.53
2023-01-13T03:35:19.073Z,100413.13
2023-01-13T03:37:45.446Z,100420.78
2023-01-13T03:40:11.905Z,100415.97
2023-01-13T03:42:38.298Z,100418.44
2023-01-13T03:45:04.662Z,100407.69
2023-01-13T03:47:31.062Z,100407.25
2023-01-13T03:49:57.428Z,100408.03
2023-01-13T03:52:23.777Z,100404.84
2023-01-13T03:54:50.147Z,100411.06
2023-01-13T03:57:16.532Z,100406.94
2023-01-13T03:59:42.910Z,100404.97
2023-01-13T04:02:09.432Z,100399.88
2023-01-13T04:04:35.843Z,100408.16
2023-01-13T04:07:02.217Z,100413.91
2023-01-13T04:09:28.599Z,100421.88
2023-01-13T04:11:54.961Z,100419.03
2023-01-13T04:14:21.322Z,100426.63
2023-01-13T04:16:47.696Z,100428.78
2023-01-13T04:19:14.080Z,100432.06
2023-01-13T04:21:40.445Z,100430.28
2023-01-13T04:24:06.844Z,100433.88
2023-01-13T04:26:33.219Z,100436.47
2023-01-13T04:28:59.596Z,100445.66
2023-01-13T04:31:25.969Z,100445.22
2023-01-13T04:33:52.362Z,100443.53
2023-01-13T04:36:18.745Z,100453.50
2023-01-13T04:38:45.095Z,100449.16
2023-01-13T04:41:11.462Z,100460.16
2023-01-13T04:43:37.873Z,100459.25
2023-01-13T04:46:04.350Z,100462.94
2023-01-13T04:48:30.787Z,100468.63
2023-01-13T04:50:57.184Z,100464.47
2023-01-13T04:53:23.553Z,100465.59
2023-01-13T04:55:49.924Z,100467.00
2023-01-13T04:58:16.294Z,100464.81
2023-01-13T05:00:42.686Z,100469.50
2023-01-13T05:03:09.031Z,100485.72
2023-01-13T05:05:35.499Z,100470.84
2023-01-13T05:08:01.871Z,100470.09
2023-01-13T05:10:28.241Z,100459.63
2023-01-13T05:12:54.600Z,100471.34
2023-01-13T05:15:20.954Z,100471.69
2023-01-13T05:17:47.318Z,100478.00
2023-01-13T05:20:13.700Z,100477.66
2023-01-13T05:22:40.059Z,100478.44
2023-01-13T05:25:06.449Z,100485.53
2023-01-13T05:27:32.820Z,100488.56
2023-01-13T05:29:59.288Z,100497.34
2023-01-13T05:32:25.627Z,100506.81
2023-01-13T05:34:52.026Z,100510.97
2023-01-13T05:37:18.391Z,100521.41
2023-01-13T05:39:44.861Z,100518.94
2023-01-13T05:42:11.217Z,100514.75
2023-01-13T05:44:37.564Z,100513.25
2023-01-13T05:47:03.919Z,100510.44
2023-01-13T05:49:30.278Z,100527.22
2023-01-13T05:51:56.678Z,100521.53
2023-01-13T05:54:23.033Z,100532.66
2023-01-13T05:56:49.423Z,100538.88
2023-01-13T05:59:15.798Z,100528.72
2023-01-13T06:01:42.165Z,100532.31
2023-01-13T06:04:08.551Z,100537.44
2023-01-13T06:06:34.909Z,100543.84
2023-01-13T06:09:01.304Z,100558.97
2023-01-13T06:11:27.653Z,100546.56
2023-01-13T06:13:53.997Z,100545.03
2023-01-13T06:16:20.411Z,100555.06
2023-01-13T06:18:46.770Z,100558.34
2023-01-13T06:21:13.132Z,100573.88
2023-01-13T06:23:39.503Z,100572.81
2023-01-13T06:26:05.876Z,100566.69
2023-01-13T06:28:32.249Z,100587.16
2023-01-13T06:30:58.642Z,100584.47
2023-01-13T06:33:25.027Z,100591.28
2023-01-13T06:35:51.418Z,100593.38
2023-01-13T06:38:17.786Z,100594.69
2023-01-13T06:40:44.151Z,100595.34
2023-01-13T06:43:10.495Z,100608.84
2023-01-13T06:45:36.880Z,100608.38
2023-01-13T06:48:03.247Z,100609.06
2023-01-13T06:50:29.619Z,100603.50
2023-01-13T06:52:56.006Z,100607.31
2023-01-13T06:55:22.355Z,100615.34
2023-01-13T06:57:48.718Z,100622.31
2023-01-13T07:00:15.076Z,100625.69
2023-01-13T07:02:41.569Z,100627.44
2023-01-13T07:05:07.953Z,100633.53
2023-01-13T07:07:34.309Z,100628.19
2023-01-13T07:10:00.676Z,100627.53
2023-01-13T07:12:27.024Z,100625.28
2023-01-13T07:14:53.410Z,100633.97
2023-01-13T07:17:19.775Z,100647.47
2023-01-13T07:19:46.149Z,100649.97
2023-01-13T07:22:12.498Z,100657.38
2023-01-13T07:24:38.849Z,100662.03
2023-01-13T07:27:05.212Z,100657.03
2023-01-13T07:29:31.584Z,100654.31
2023-01-13T07:31:58.077Z,100659.66
2023-01-13T07:34:24.460Z,100651.06
2023-01-13T07:36:50.837Z,100671.72
2023-01-13T07:39:17.208Z,100672.38
2023-01-13T07:41:43.560Z,100666.19
2023-01-13T07:44:09.907Z,100672.59
2023-01-13T07:46:36.286Z,100673.59
2023-01-13T07:49:02.659Z,100667.69
2023-01-13T07:51:29.028Z,100670.97
2023-01-13T07:53:55.379Z,100675.53
2023-01-13T07:56:21.763Z,100694.34
2023-01-13T07:58:48.118Z,100699.91
2023-01-13T08:01:14.592Z,100702.84
2023-01-13T08:03:41.138Z,100713.09
2023-01-13T08:06:07.565Z,100713.50
2023-01-13T08:08:33.959Z,100711.66
2023-01-13T08:11:00.345Z,100722.75
2023-01-13T08:13:26.707Z,100713.41
2023-01-13T08:15:53.101Z,100722.75
2023-01-13T08:18:19.464Z,100722.00
2023-01-13T08:20:45.820Z,100722.66
2023-01-13T08:23:12.215Z,100727.34
2023-01-13T08:25:38.607Z,100743.53
2023-01-13T08:28:04.975Z,100743.22
2023-01-13T08:30:31.379Z,100746.09
2023-01-13T08:32:57.755Z,100744.75
2023-01-13T08:35:24.137Z,100740.50
2023-01-13T08:37:50.509Z,100744.88
2023-01-13T08:40:16.937Z,100746.81
2023-01-13T08:42:43.306Z,100750.09
2023-01-13T08:45:09.666Z,100746.09
2023-01-13T08:47:36.027Z,100751.63
2023-01-13T08:50:02.520Z,100754.66
2023-01-13T08:52:28.923Z,100746.75
2023-01-13T08:54:55.293Z,100758.50
2023-01-13T08:57:21.744Z,100754.47
2023-01-13T08:59:48.127Z,100740.63
2023-01-13T09:02:14.593Z,100756.72
2023-01-13T09:04:41.023Z,100762.53
2023-01-13T09:07:07.409Z,100760.16
2023-01-13T09:09:33.910Z,100763.06
2023-01-13T09:12:00.292Z,100770.59
2023-01-13T09:14:26.655Z,100757.50
2023-01-13T09:16:53.015Z,100768.94
2023-01-13T09:19:19.404Z,100770.59
2023-01-13T09:21:45.793Z,100768.81
2023-01-13T09:24:12.208Z,100772.53
2023-01-13T09:26:38.584Z,100789.19
2023-01-13T09:29:04.958Z,100774.94
2023-01-13T09:31:31.365Z,100784.19
2023-01-13T09:33:57.776Z,100776.13
2023-01-13T09:36:24.142Z,100784.22
2023-01-13T09:38:50.519Z,100786.38
2023-01-13T09:41:16.885Z,100795.63
2023-01-13T09:43:43.269Z,100803.78
2023-01-13T09:46:09.640Z,100800.44
2023-01-13T09:48:36.088Z,100807.59
2023-01-13T09:51:02.488Z,100813.81
2023-01-13T09:53:28.875Z,100819.50
2023-01-13T09:55:55.247Z,100824.50
2023-01-13T09:58:21.670Z,100822.53
2023-01-13T10:00:48.107Z,100821.00
2023-01-13T10:03:14.529Z,100824.81
2023-01-13T10:05:40.897Z,100828.63
2023-01-13T10:08:07.266Z,100842.34
2023-01-13T10:10:33.620Z,100830.56
2023-01-13T10:13:00.104Z,100829.59
2023-01-13T10:15:26.642Z,100828.94
2023-01-13T10:17:53.023Z,100841.81
2023-01-13T10:20:19.377Z,100833.66
2023-01-13T10:22:45.739Z,100844.53
2023-01-13T10:25:12.133Z,100843.09
2023-01-13T10:27:38.488Z,100836.34
2023-01-13T10:30:04.894Z,100851.28
2023-01-13T10:32:31.283Z,100841.06
2023-01-13T10:34:57.654Z,100833.41
2023-01-13T10:37:24.037Z,100839.19
2023-01-13T10:39:50.407Z,100836.69
2023-01-13T10:42:16.788Z,100843.88
2023-01-13T10:44:43.164Z,100857.81
2023-01-13T10:47:09.535Z,100861.19
2023-01-13T10:49:35.910Z,100863.38
2023-01-13T10:52:02.374Z,100866.53
2023-01-13T10:54:28.787Z,100875.59
2023-01-13T10:56:55.153Z,100880.03
2023-01-13T10:59:21.524Z,100897.00
2023-01-13T11:01:48.079Z,100893.66
2023-01-13T11:04:14.446Z,100914.13
2023-01-13T11:06:40.820Z,100911.06
2023-01-13T11:09:07.215Z,100902.59
2023-01-13T11:11:33.568Z,100915.84
2023-01-13T11:13:59.934Z,100908.75
2023-01-13T11:16:26.336Z,100916.16
2023-01-13T11:18:52.719Z,100907.47
2023-01-13T11:21:19.128Z,100922.25
2023-01-13T11:23:45.497Z,100907.25
2023-01-13T11:26:11.864Z,100916.41
2023-01-13T11:28:38.238Z,100908.19
2023-01-13T11:31:04.680Z,100921.38
2023-01-13T11:33:31.103Z,100925.19
2023-01-13T11:35:57.496Z,100922.91
2023-01-13T11:38:23.877Z,100925.84
2023-01-13T11:40:50.250Z,100931.19
2023-01-13T11:43:16.606Z,100929.56
2023-01-13T11:45:42.964Z,100933.81
2023-01-13T11:48:09.393Z,100935.88
2023-01-13T11:50:35.739Z,100930.88
2023-01-13T11:53:02.106Z,100934.88
2023-01-13T11:55:28.477Z,100940.91
2023-01-13T11:57:54.837Z,100944.81
2023-01-13T12:00:21.219Z,100935.22
2023-01-13T12:02:47.660Z,100945.91
2023-01-13T12:05:14.095Z,100941.31
2023-01-13T12:07:40.461Z,100939.63
2023-01-13T12:10:11.624Z,100929.59
2023-01-13T12:12:39.540Z,100937.00
2023-01-13T12:15:05.916Z,100922.94
2023-01-13T12:17:32.385Z,100929.34
2023-01-13T12:19:58.748Z,100927.69
2023-01-13T12:22:25.115Z,100931.66
2023-01-13T12:24:51.593Z,100929.97
2023-01-13T12:27:18.129Z,100931.53
2023-01-13T12:29:44.526Z,100938.97
2023-01-13T12:32:10.901Z,100932.94
2023-01-13T12:34:37.418Z,100941.78
2023-01-13T12:37:03.959Z,100945.78
2023-01-13T12:39:30.326Z,100952.94
2023-01-13T12:41:56.803Z,100957.25
2023-01-13T12:44:23.214Z,100968.91
2023-01-13T12:46:49.573Z,100951.59
2023-01-13T12:49:15.960Z,100950.16
2023-01-13T12:51:42.314Z,100962.78
2023-01-13T12:54:08.687Z,100967.66
2023-01-13T12:56:36.484Z,100968.34
2023-01-13T12:59:03.096Z,100961.19
2023-01-13T13:01:29.523Z,100960.66
2023-01-13T13:03:55.895Z,100972.09
2023-01-13T13:06:22.269Z,100967.59
2023-01-13T13:08:48.641Z,100966.28
2023-01-13T13:11:15.074Z,100970.41
2023-01-13T13:13:41.460Z,100944.63
2023-01-13T13:16:07.827Z,100957.66
2023-01-13T13:18:34.185Z,100955.47
2023-01-13T13:21:03.645Z,100956.00
2023-01-13T13:23:30.550Z,100958.53
2023-01-13T13:25:56.916Z,100956.97
2023-01-13T13:28:23.306Z,100963.75
2023-01-13T13:30:49.709Z,100976.63
2023-01-13T13:33:16.103Z,100974.34
2023-01-13T13:35:42.484Z,100977.25
2023-01-13T13:38:08.868Z,100981.16
2023-01-13T13:40:35.223Z,100987.47
2023-01-13T13:43:01.587Z,100986.59
2023-01-13T13:45:27.975Z,100991.09
2023-01-13T13:47:54.347Z,100994.78
2023-01-13T13:50:20.710Z,100994.59
2023-01-13T13:52:47.345Z,100991.72
2023-01-13T13:55:13.697Z,100999.22
2023-01-13T13:57:40.248Z,100999.91
2023-01-13T14:00:06.694Z,101000.00
2023-01-13T14:02:33.071Z,101004.38
2023-01-13T14:04:59.592Z,100996.81
2023-01-13T14:07:25.976Z,101000.63
2023-01-13T14:09:52.299Z,101016.03
2023-01-13T14:12:18.692Z,101012.38
2023-01-13T14:14:45.057Z,101020.47
2023-01-13T14:17:11.434Z,101021.47
2023-01-13T14:19:37.784Z,101021.16
2023-01-13T14:22:04.170Z,101027.63
2023-01-13T14:24:30.549Z,101034.75
2023-01-13T14:26:56.927Z,101048.78
2023-01-13T14:29:23.277Z,101051.09
2023-01-13T14:31:49.642Z,101049.16
2023-01-13T14:34:31.123Z,101052.19
2023-01-13T14:36:58.022Z,101050.66
2023-01-13T14:39:24.381Z,101070.31
2023-01-13T14:41:50.762Z,101064.53
2023-01-13T14:44:17.142Z,101065.56
2023-01-13T14:46:43.512Z,101063.53
2023-01-13T14:49:09.888Z,101071.78
2023-01-13T14:51:36.367Z,101086.81
2023-01-13T14:54:02.756Z,101078.81
2023-01-13T14:56:31.107Z,101081.44
2023-01-13T14:58:57.552Z,101091.66
2023-01-13T15:01:24.041Z,101089.69
2023-01-13T15:03:50.470Z,101100.78
2023-01-13T15:06:16.846Z,101101.34
2023-01-13T15:08:43.215Z,101104.75
2023-01-13T15:11:09.576Z,101104.44
2023-01-13T15:13:36.030Z,101109.97
2023-01-13T15:16:02.565Z,101117.97
2023-01-13T15:18:28.953Z,101117.28
2023-01-13T15:20:55.327Z,101127.13
2023-01-13T15:23:21.694Z,101136.91
2023-01-13T15:25:48.063Z,101144.56
2023-01-13T15:28:14.447Z,101147.22
2023-01-13T15:30:40.813Z,101158.00
2023-01-13T15:33:07.167Z,101153.69
2023-01-13T15:35:33.537Z,101161.06
2023-01-13T15:37:59.938Z,101165.75
2023-01-13T15:40:26.308Z,101167.38
2023-01-13T15:42:52.668Z,101177.41
2023-01-13T15:45:19.020Z,101173.38
2023-01-13T15:47:45.413Z,101177.41
2023-01-13T15:50:11.776Z,101177.41
2023-01-13T15:52:38.161Z,101167.59
2023-01-13T15:55:04.538Z,101169.91
2023-01-13T15:57:30.916Z,101164.03
2023-01-13T15:59:57.279Z,101170.75
2023-01-13T16:02:23.666Z,101175.34
2023-01-13T16:04:50.032Z,101180.19
2023-01-13T16:07:16.398Z,101175.44
2023-01-13T16:09:42.750Z,101179.69
2023-01-13T16:12:09.155Z,101184.72
2023-01-13T16:14:35.517Z,101191.09
2023-01-13T16:17:01.896Z,101185.88
2023-01-13T16:19:28.279Z,101190.72
2023-01-13T16:21:54.644Z,101190.41
2023-01-13T16:24:21.041Z,101195.75
2023-01-13T16:26:47.436Z,101197.38
2023-01-13T16:29:13.835Z,101192.25
2023-01-13T16:31:40.356Z,101199.56
2023-01-13T16:34:06.803Z,101205.53
2023-01-13T16:36:33.186Z,101209.00
2023-01-13T16:38:59.585Z,101219.56
2023-01-13T16:41:25.990Z,101226.88
2023-01-13T16:43:52.355Z,101230.28
2023-01-13T16:46:18.753Z,101226.78
2023-01-13T16:48:45.147Z,101240.53
2023-01-13T16:51:11.528Z,101242.09
2023-01-13T16:53:37.885Z,101242.34
2023-01-13T16:56:04.282Z,101249.47
2023-01-13T16:58:30.641Z,101250.94
2023-01-13T17:00:57.056Z,101254.28
2023-01-13T17:03:23.506Z,101255.19
2023-01-13T17:05:49.886Z,101266.34
2023-01-13T17:08:16.240Z,101273.13
2023-01-13T17:10:42.616Z,101260.38
2023-01-13T17:13:15.875Z,101264.47
2023-01-13T17:15:43.001Z,101268.44
2023-01-13T17:18:09.342Z,101276.69
2023-01-13T17:20:35.719Z,101275.06
2023-01-13T17:23:02.085Z,101265.03
2023-01-13T17:25:28.442Z,101260.50
2023-01-13T17:27:54.794Z,101263.41
2023-01-13T17:30:21.161Z,101271.50
2023-01-13T17:32:47.554Z,101271.50
2023-01-13T17:35:13.988Z,101268.53
2023-01-13T17:37:40.344Z,101280.19
2023-01-13T17:40:06.731Z,101288.41
2023-01-13T17:42:33.073Z,101292.53
2023-01-13T17:44:59.440Z,101296.91
2023-01-13T17:47:25.805Z,101301.59
2023-01-13T17:49:52.187Z,101304.81
2023-01-13T17:52:18.554Z,101314.16
2023-01-13T17:54:44.939Z,101307.09
2023-01-13T17:57:11.277Z,101317.09
2023-01-13T17:59:37.640Z,101325.25
2023-01-13T18:02:04.177Z,101325.59
2023-01-13T18:04:30.667Z,101334.78
2023-01-13T18:06:57.017Z,101328.94
2023-01-13T18:09:23.413Z,101316.59
2023-01-13T18:11:49.820Z,101322.03
2023-01-13T18:14:16.183Z,101324.81
2023-01-13T18:16:42.551Z,101314.22
2023-01-13T18:19:08.928Z,101318.13
2023-01-13T18:21:35.306Z,101326.22
2023-01-13T18:24:01.663Z,101317.28
2023-01-13T18:26:28.015Z,101328.78
2023-01-13T18:28:54.391Z,101322.59
2023-01-13T18:31:20.765Z,101311.03
2023-01-13T18:33:47.129Z,101314.44
2023-01-13T18:36:13.507Z,101316.72
2023-01-13T18:38:39.862Z,101313.59
2023-01-13T18:41:06.242Z,101318.69
2023-01-13T18:43:32.602Z,101321.75
2023-01-13T18:45:58.996Z,101311.97
2023-01-13T18:48:25.359Z,101312.06
2023-01-13T18:50:51.719Z,101305.50
2023-01-13T18:53:18.097Z,101309.06
2023-01-13T18:55:44.468Z,101310.59
2023-01-13T18:58:10.820Z,101307.09
2023-01-13T19:00:37.204Z,101312.47
2023-01-13T19:05:32.265Z,101303.13
2023-01-13T19:07:58.646Z,101310.09
2023-01-13T19:10:25.008Z,101311.34
2023-01-13T19:12:51.383Z,101299.22
2023-01-13T19:15:17.759Z,101308.50
2023-01-13T19:17:44.159Z,101307.03
2023-01-13T19:20:10.549Z,101308.84
2023-01-13T19:22:36.902Z,101304.09
2023-01-13T19:25:03.271Z,101307.38
2023-01-13T19:27:29.690Z,101306.63
2023-01-13T19:29:56.080Z,101305.06
2023-01-13T19:32:22.560Z,101310.94
2023-01-13T19:34:48.979Z,101320.06
2023-01-13T19:37:15.369Z,101317.97
2023-01-13T19:39:41.731Z,101328.13
2023-01-13T19:42:08.199Z,101334.59
2023-01-13T19:44:34.586Z,101337.31
2023-01-13T19:47:00.944Z,101333.91
2023-01-13T19:49:27.302Z,101341.66
2023-01-13T19:51:53.677Z,101345.13
2023-01-13T19:54:20.024Z,101333.91
2023-01-13T19:56:46.402Z,101337.31
2023-01-13T19:59:12.770Z,101337.31
2023-01-13T20:01:39.289Z,101338.94
2023-01-13T20:04:05.686Z,101333.50
2023-01-13T20:06:32.059Z,101336.88
2023-01-13T20:08:58.412Z,101327.97
2023-01-13T20:11:24.786Z,101331.94
2023-01-13T20:13:51.149Z,101334.22
2023-01-13T20:16:17.546Z,101341.91
2023-01-13T20:18:43.946Z,101336.63
2023-01-13T20:21:10.342Z,101340.13
2023-01-13T20:23:36.777Z,101345.56
2023-01-13T20:26:03.253Z,101344.00
2023-01-13T20:28:29.615Z,101344.44
2023-01-13T20:30:55.987Z,101339.34
2023-01-13T20:33:22.346Z,101342.47
2023-01-13T20:35:48.727Z,101351.06
2023-01-13T20:38:15.083Z,101351.41
2023-01-13T20:40:41.450Z,101352.53
2023-01-13T20:43:07.824Z,101351.75
2023-01-13T20:45:34.172Z,101351.47
2023-01-13T20:48:00.524Z,101348.19
2023-01-13T20:50:26.927Z,101353.28
2023-01-13T20:52:53.297Z,101358.38
2023-01-13T20:55:19.644Z,101347.69
2023-01-13T20:57:46.055Z,101352.31
2023-01-13T21:00:12.416Z,101351.63
2023-01-13T21:02:38.797Z,101349.81
2023-01-13T21:05:05.166Z,101339.28
2023-01-13T21:07:31.564Z,101337.03
2023-01-13T21:09:58.085Z,101345.19
2023-01-13T21:12:24.469Z,101347.50
2023-01-13T21:14:50.839Z,101336.56
2023-01-13T21:17:17.232Z,101337.66
2023-01-13T21:19:43.573Z,101327.47
2023-01-13T21:22:09.936Z,101338.88
2023-01-13T21:24:36.265Z,101330.41
2023-01-13T21:27:02.669Z,101333.56
2023-01-13T21:29:29.030Z,101327.22
2023-01-13T21:31:55.437Z,101328.13
2023-01-13T21:34:21.855Z,101311.44
2023-01-13T21:36:48.189Z,101324.19
2023-01-13T21:39:14.549Z,101313.25
2023-01-13T21:41:40.929Z,101314.00
2023-01-13T21:44:07.419Z,101309.25
2023-01-13T21:46:33.803Z,101314.78
2023-01-13T21:49:00.153Z,101309.66
2023-01-13T21:51:26.537Z,101307.47
2023-01-13T21:53:52.947Z,101307.09
2023-01-13T21:56:19.310Z,101298.47
2023-01-13T21:58:45.720Z,101298.13
2023-01-13T22:01:12.258Z,101296.44
2023-01-13T22:03:38.771Z,101289.13
2023-01-13T22:06:05.588Z,101292.94
2023-01-13T22:08:31.972Z,101289.81
2023-01-13T22:10:58.637Z,101279.00
2023-01-13T22:13:25.109Z,101288.34
2023-01-13T22:15:51.578Z,101282.13
2023-01-13T22:18:17.956Z,101286.81
2023-01-13T22:20:44.327Z,101291.47
2023-01-13T22:23:10.704Z,101291.47
2023-01-13T22:25:37.108Z,101293.63
2023-01-13T22:28:04.596Z,101284.94
2023-01-13T22:30:30.967Z,101281.44
2023-01-13T22:32:57.366Z,101274.75
2023-01-13T22:35:23.773Z,101287.56
2023-01-13T22:37:50.149Z,101292.09
2023-01-13T22:40:16.534Z,101284.00
2023-01-13T22:42:42.935Z,101282.91
2023-01-13T22:45:09.299Z,101284.78
2023-01-13T22:47:35.674Z,101284.16
2023-01-13T22:50:02.037Z,101281.72
2023-01-13T22:52:28.394Z,101281.91
2023-01-13T22:54:54.767Z,101285.09
2023-01-13T22:57:21.878Z,101289.03
2023-01-13T22:59:50.078Z,101287.66
2023-01-13T23:02:16.450Z,101288.13
2023-01-13T23:04:42.834Z,101294.03
2023-01-13T23:07:09.212Z,101286.81
2023-01-13T23:09:35.584Z,101282.06
2023-01-13T23:12:01.928Z,101268.84
2023-01-13T23:14:28.334Z,101273.19
2023-01-13T23:16:54.771Z,101271.94
2023-01-13T23:19:21.536Z,101272.50
2023-01-13T23:21:47.891Z,101270.06
2023-01-13T23:24:14.275Z,101263.84
2023-01-13T23:26:40.661Z,101260.22
2023-01-13T23:29:07.032Z,101256.38
2023-01-13T23:31:33.399Z,101255.53
2023-01-13T23:33:59.783Z,101250.19
2023-01-13T23:36:26.143Z,101241.25
2023-01-13T23:38:52.537Z,101247.00
2023-01-13T23:41:18.924Z,101233.84
2023-01-13T23:43:45.303Z,101232.38
2023-01-13T23:46:11.740Z,101232.47
2023-01-13T23:48:38.135Z,101214.38
2023-01-13T23:51:04.491Z,101210.22
2023-01-13T23:53:30.873Z,101205.88
2023-01-13T23:55:57.282Z,101202.53
2023-01-13T23:58:23.631Z,101183.84
